Time;durP1;ratioP1;P1;durP2;ratioP2;P2;SDS_P1;SDS_P2;PMS_P1;PMS_P2;Temp;Humidity;BMP_temperature;BMP_pressure;BME280_temperature;BME280_humidity;BME280_pressure;Samples;Min_cycle;Max_cycle;Signal;HPM_P1;HPM_P2
2021/12/18 00:00:43;;;;;;;16.73;2.10;;;;;;;;;;4951987;29;20070;-66
2021/12/18 00:03:13;;;;;;;19.13;2.45;;;;;;;;;;4960434;28;20047;-66
2021/12/18 00:05:44;;;;;;;12.13;2.20;;;;;;;;;;4960242;28;20082;-66
2021/12/18 00:08:14;;;;;;;24.70;2.40;;;;;;;;;;4958965;28;20055;-65
2021/12/18 00:10:45;;;;;;;14.15;2.00;;;;;;;;;;4940063;29;20056;-65
2021/12/18 00:13:16;;;;;;;21.35;2.58;;;;;;;;;;4952165;29;20094;-65
2021/12/18 00:15:47;;;;;;;21.50;2.08;;;;;;;;;;4951584;29;20062;-66
2021/12/18 00:18:17;;;;;;;20.55;2.50;;;;;;;;;;4936195;29;20052;-66
2021/12/18 00:20:49;;;;;;;14.38;2.08;;;;;;;;;;4931660;29;20063;-66
2021/12/18 00:23:19;;;;;;;18.83;2.40;;;;;;;;;;4905410;29;20056;-66
2021/12/18 00:25:50;;;;;;;13.45;2.05;;;;;;;;;;4931900;29;20066;-66
2021/12/18 00:28:21;;;;;;;15.23;2.40;;;;;;;;;;4917379;29;20060;-66
2021/12/18 00:30:52;;;;;;;15.73;2.30;;;;;;;;;;4932282;29;20064;-66
2021/12/18 00:33:22;;;;;;;11.70;1.98;;;;;;;;;;4932999;29;20048;-73
2021/12/18 00:35:53;;;;;;;14.82;2.15;;;;;;;;;;4951101;28;20779;-66
2021/12/18 00:38:28;;;;;;;20.13;2.58;;;;;;;;;;4962217;28;20059;-65
2021/12/18 00:44:01;;;;;;;24.45;2.97;;;;;;;;;;4912692;29;20048;-66
2021/12/18 00:46:37;;;;;;;19.42;2.90;;;;;;;;;;4931052;29;20048;-67
2021/12/18 00:49:13;;;;;;;12.60;2.72;;;;;;;;;;4931702;29;20054;-66
2021/12/18 00:51:44;;;;;;;22.17;2.63;;;;;;;;;;4932354;29;20062;-66
2021/12/18 00:54:15;;;;;;;21.15;3.22;;;;;;;;;;4911920;29;20048;-65
2021/12/18 00:56:45;;;;;;;19.55;3.92;;;;;;;;;;4931933;29;20063;-65
2021/12/18 00:59:16;;;;;;;17.13;2.67;;;;;;;;;;4915941;29;20083;-65
2021/12/18 01:01:47;;;;;;;23.38;3.33;;;;;;;;;;4912231;29;20051;-65
2021/12/18 01:04:18;;;;;;;14.93;2.40;;;;;;;;;;4881423;29;20060;-68
2021/12/18 01:06:49;;;;;;;16.98;3.78;;;;;;;;;;4908512;29;20417;-68
2021/12/18 01:09:24;;;;;;;20.00;2.92;;;;;;;;;;4909340;29;20071;-68
2021/12/18 01:11:55;;;;;;;18.35;2.70;;;;;;;;;;4947087;29;20404;-65
2021/12/18 01:25:07;;;;;;;28.70;2.90;;;;;;;;;;4895608;29;20489;-71
2021/12/18 01:27:38;;;;;;;20.55;2.88;;;;;;;;;;4893213;29;20052;-65
2021/12/18 01:30:11;;;;;;;19.77;2.60;;;;;;;;;;4893698;29;20064;-66
2021/12/18 01:32:43;;;;;;;12.80;2.58;;;;;;;;;;4924495;29;20063;-65
2021/12/18 01:35:14;;;;;;;22.75;2.90;;;;;;;;;;4927806;29;20121;-66
2021/12/18 01:37:46;;;;;;;17.23;3.10;;;;;;;;;;4921579;29;20417;-66
2021/12/18 01:40:17;;;;;;;16.92;2.90;;;;;;;;;;4935394;29;20056;-65
2021/12/18 01:53:49;;;;;;;13.68;2.75;;;;;;;;;;4954620;29;20059;-66
2021/12/18 01:56:25;;;;;;;16.65;2.67;;;;;;;;;;4953562;28;20056;-66
2021/12/18 01:58:56;;;;;;;22.08;3.35;;;;;;;;;;4934602;29;20055;-66
2021/12/18 02:01:28;;;;;;;14.02;2.83;;;;;;;;;;4957103;28;20065;-67
2021/12/18 02:03:59;;;;;;;11.23;2.63;;;;;;;;;;4973238;28;20059;-66
2021/12/18 02:06:30;;;;;;;17.15;2.60;;;;;;;;;;4971047;28;20055;-66
2021/12/18 02:09:00;;;;;;;18.00;2.80;;;;;;;;;;4973367;28;20050;-68
2021/12/18 02:11:35;;;;;;;;;;;;;;;;;;4964664;28;20047;-67
2021/12/18 02:19:57;;;;;;;20.45;3.25;;;;;;;;;;4915533;29;20357;-67
2021/12/18 02:22:29;;;;;;;12.07;2.88;;;;;;;;;;4912580;29;20083;-66
2021/12/18 02:25:00;;;;;;;11.32;2.85;;;;;;;;;;4895877;29;20048;-66
2021/12/18 02:27:30;;;;;;;10.30;2.75;;;;;;;;;;4933918;29;20059;-70
2021/12/18 02:30:04;;;;;;;10.20;2.75;;;;;;;;;;4915387;29;20040;-66
2021/12/18 02:32:35;;;;;;;16.85;3.72;;;;;;;;;;4928850;29;20059;-68
2021/12/18 02:35:10;;;;;;;12.10;3.10;;;;;;;;;;4914923;29;20060;-66
2021/12/18 02:37:43;;;;;;;13.82;2.92;;;;;;;;;;4933873;29;20043;-67
2021/12/18 02:43:04;;;;;;;12.98;2.90;;;;;;;;;;4839601;29;20050;-67
2021/12/18 02:45:36;;;;;;;12.18;3.10;;;;;;;;;;4834107;29;20057;-66
2021/12/18 02:48:06;;;;;;;13.20;2.88;;;;;;;;;;4800766;29;20063;-66
2021/12/18 02:50:40;;;;;;;12.25;2.85;;;;;;;;;;4818318;29;20093;-68
2021/12/18 02:53:10;;;;;;;11.65;2.97;;;;;;;;;;4821702;29;20066;-66
2021/12/18 02:55:41;;;;;;;11.68;2.45;;;;;;;;;;4849926;29;20057;-66
2021/12/18 02:58:12;;;;;;;14.95;3.33;;;;;;;;;;4870085;29;20405;-66
2021/12/18 03:00:42;;;;;;;23.75;2.97;;;;;;;;;;4896173;29;20063;-65
2021/12/18 03:03:14;;;;;;;9.18;2.63;;;;;;;;;;4893023;29;20048;-66
2021/12/18 03:05:59;;;;;;;11.10;3.00;;;;;;;;;;4914619;29;20059;-66
2021/12/18 03:25:37;;;;;;;14.75;2.97;;;;;;;;;;4972354;28;20067;-66
2021/12/18 03:28:08;;;;;;;16.33;3.22;;;;;;;;;;4972641;28;20069;-66
2021/12/18 03:30:43;;;;;;;14.48;3.45;;;;;;;;;;4989208;28;20417;-66
2021/12/18 03:33:13;;;;;;;12.38;3.13;;;;;;;;;;4991072;28;20054;-66
2021/12/18 03:35:44;;;;;;;14.45;3.03;;;;;;;;;;4990924;28;20449;-67
2021/12/18 03:38:14;;;;;;;9.00;2.72;;;;;;;;;;4991408;28;20070;-66
2021/12/18 03:40:45;;;;;;;14.77;2.95;;;;;;;;;;4991280;28;20065;-66
2021/12/18 03:43:15;;;;;;;10.15;2.92;;;;;;;;;;4990910;28;20051;-67
2021/12/18 03:45:45;;;;;;;11.98;2.75;;;;;;;;;;4991464;28;20076;-67
2021/12/18 03:48:15;;;;;;;9.50;2.65;;;;;;;;;;4983812;28;20080;-66
2021/12/18 03:50:47;;;;;;;8.40;2.90;;;;;;;;;;4971516;28;20059;-68
2021/12/18 03:53:17;;;;;;;12.52;3.28;;;;;;;;;;4952352;29;20055;-66
2021/12/18 03:55:48;;;;;;;15.00;3.60;;;;;;;;;;4952271;29;20062;-66
2021/12/18 03:58:18;;;;;;;11.30;3.50;;;;;;;;;;4936893;29;20416;-67
2021/12/18 04:00:48;;;;;;;13.77;2.65;;;;;;;;;;4948726;29;20056;-67
2021/12/18 04:03:20;;;;;;;13.13;3.05;;;;;;;;;;4952078;29;20051;-65
2021/12/18 04:05:50;;;;;;;11.82;2.80;;;;;;;;;;4952146;29;20066;-67
2021/12/18 04:08:20;;;;;;;9.18;2.88;;;;;;;;;;4945518;28;20046;-67
2021/12/18 04:10:51;;;;;;;17.20;3.10;;;;;;;;;;4939059;28;20263;-68
2021/12/18 04:13:21;;;;;;;8.93;2.95;;;;;;;;;;4980537;28;20066;-68
2021/12/18 04:15:52;;;;;;;21.73;3.60;;;;;;;;;;4989839;28;20170;-66
2021/12/18 04:18:22;;;;;;;8.35;3.15;;;;;;;;;;4970942;28;20058;-66
2021/12/18 04:20:52;;;;;;;8.10;3.08;;;;;;;;;;4961483;28;20051;-65
2021/12/18 04:23:22;;;;;;;12.35;3.00;;;;;;;;;;4951450;29;20059;-66
2021/12/18 04:25:55;;;;;;;10.82;3.08;;;;;;;;;;4952064;29;20411;-69
2021/12/18 04:28:25;;;;;;;;;;;;;;;;;;4971531;28;20059;-66
2021/12/18 04:30:55;;;;;;;10.60;3.03;;;;;;;;;;4971046;28;19922;-68
2021/12/18 04:33:26;;;;;;;10.13;3.08;;;;;;;;;;4970709;28;20058;-67
2021/12/18 04:35:57;;;;;;;12.20;3.67;;;;;;;;;;4970797;28;20066;-67
2021/12/18 04:38:27;;;;;;;11.02;3.13;;;;;;;;;;4932307;29;20067;-66
2021/12/18 04:40:58;;;;;;;10.38;3.03;;;;;;;;;;4894375;29;20063;-66
2021/12/18 04:43:27;;;;;;;8.77;2.65;;;;;;;;;;4894310;29;20063;-67
2021/12/18 04:45:58;;;;;;;8.25;2.80;;;;;;;;;;4894519;29;20506;-67
2021/12/18 04:48:31;;;;;;;11.80;2.78;;;;;;;;;;4894391;29;20061;-66
2021/12/18 04:51:01;;;;;;;15.15;3.67;;;;;;;;;;4894448;29;20052;-66
2021/12/18 04:53:31;;;;;;;16.55;3.20;;;;;;;;;;4894376;29;20069;-67
2021/12/18 04:56:01;;;;;;;8.98;2.90;;;;;;;;;;4903996;29;20059;-68
2021/12/18 04:58:32;;;;;;;15.23;3.28;;;;;;;;;;4922701;29;20074;-66
2021/12/18 05:01:03;;;;;;;10.63;2.75;;;;;;;;;;4932060;29;20063;-66
2021/12/18 05:03:35;;;;;;;7.60;2.95;;;;;;;;;;4932064;29;20067;-67
2021/12/18 05:06:05;;;;;;;12.35;3.72;;;;;;;;;;4961168;28;20085;-68
2021/12/18 05:08:36;;;;;;;10.73;3.50;;;;;;;;;;4989635;28;20428;-67
2021/12/18 05:11:07;;;;;;;15.43;3.40;;;;;;;;;;4989880;28;20054;-67
2021/12/18 05:13:37;;;;;;;17.50;3.63;;;;;;;;;;4988998;28;20050;-66
2021/12/18 05:16:07;;;;;;;12.82;3.30;;;;;;;;;;5020504;28;20556;-67
2021/12/18 05:18:37;;;;;;;7.25;3.08;;;;;;;;;;5070126;28;20048;-67
2021/12/18 05:21:10;;;;;;;10.32;3.20;;;;;;;;;;5089287;28;20043;-67
2021/12/18 05:23:39;;;;;;;;;;;;;;;;;;5072798;28;20051;-67
2021/12/18 05:26:09;;;;;;;13.60;3.83;;;;;;;;;;5038784;28;19920;-67
2021/12/18 05:28:39;;;;;;;8.45;3.20;;;;;;;;;;5089186;28;20156;-66
2021/12/18 05:31:12;;;;;;;11.77;3.30;;;;;;;;;;5038748;28;20521;-67
2021/12/18 05:33:48;;;;;;;10.57;3.22;;;;;;;;;;5088440;28;20445;-67
2021/12/18 05:36:35;;;;;;;11.13;3.67;;;;;;;;;;5055310;28;20074;-68
2021/12/18 05:39:08;;;;;;;12.27;3.60;;;;;;;;;;5088901;28;20052;-67
2021/12/18 05:41:39;;;;;;;13.48;3.60;;;;;;;;;;5088839;28;20047;-67
2021/12/18 05:44:10;;;;;;;11.10;3.80;;;;;;;;;;5028038;28;20046;-67
2021/12/18 05:46:41;;;;;;;11.95;3.47;;;;;;;;;;5028778;28;20061;-66
2021/12/18 05:49:11;;;;;;;15.77;3.53;;;;;;;;;;5028087;28;20513;-67
2021/12/18 05:51:45;;;;;;;10.27;3.20;;;;;;;;;;5028519;28;20524;-69
2021/12/18 05:54:16;;;;;;;12.40;3.15;;;;;;;;;;5028811;28;20045;-66
2021/12/18 05:56:46;;;;;;;11.50;3.80;;;;;;;;;;5008835;28;20399;-67
2021/12/18 05:59:18;;;;;;;10.80;3.40;;;;;;;;;;5008880;28;20058;-66
2021/12/18 06:01:48;;;;;;;9.18;3.65;;;;;;;;;;5008944;28;20469;-67
2021/12/18 06:04:18;;;;;;;15.20;3.13;;;;;;;;;;4975843;28;20058;-66
2021/12/18 06:06:49;;;;;;;10.32;3.45;;;;;;;;;;4992244;28;20056;-66
2021/12/18 06:09:20;;;;;;;8.88;2.90;;;;;;;;;;5008803;28;20054;-66
2021/12/18 06:11:50;;;;;;;9.10;3.40;;;;;;;;;;5008784;28;20065;-67
2021/12/18 06:14:20;;;;;;;10.45;3.60;;;;;;;;;;5008456;28;20199;-68
2021/12/18 06:16:51;;;;;;;8.73;3.20;;;;;;;;;;5028421;28;20056;-71
2021/12/18 06:19:22;;;;;;;6.90;3.30;;;;;;;;;;5028485;28;20054;-67
2021/12/18 06:21:52;;;;;;;9.60;2.90;;;;;;;;;;5029257;28;20060;-66
2021/12/18 06:24:22;;;;;;;7.88;2.92;;;;;;;;;;5047818;28;20057;-68
2021/12/18 06:26:53;;;;;;;8.85;3.20;;;;;;;;;;5048159;28;20057;-67
2021/12/18 06:29:24;;;;;;;11.60;3.03;;;;;;;;;;5048028;28;20064;-67
2021/12/18 06:31:54;;;;;;;11.98;2.90;;;;;;;;;;5028030;28;20053;-67
2021/12/18 06:34:24;;;;;;;7.97;3.05;;;;;;;;;;5027638;28;20053;-67
2021/12/18 06:36:55;;;;;;;8.77;2.67;;;;;;;;;;5028151;28;20046;-66
2021/12/18 06:39:25;;;;;;;11.40;3.28;;;;;;;;;;5030398;28;20053;-65
2021/12/18 06:41:55;;;;;;;13.52;3.05;;;;;;;;;;5011780;28;20502;-67
2021/12/18 06:44:26;;;;;;;7.95;3.38;;;;;;;;;;4991958;28;20050;-66
2021/12/18 06:46:57;;;;;;;11.63;3.20;;;;;;;;;;4992163;28;20073;-68
2021/12/18 06:49:28;;;;;;;8.07;2.72;;;;;;;;;;4992164;28;20133;-66
2021/12/18 06:51:58;;;;;;;8.63;3.03;;;;;;;;;;4972642;28;20123;-66
2021/12/18 06:54:29;;;;;;;11.00;3.08;;;;;;;;;;4937497;28;20055;-66
2021/12/18 06:57:02;;;;;;;13.30;3.20;;;;;;;;;;4953504;29;20056;-66
2021/12/18 06:59:32;;;;;;;7.28;2.97;;;;;;;;;;4917815;29;20087;-67
2021/12/18 07:02:02;;;;;;;8.13;3.00;;;;;;;;;;4915330;29;20067;-67
2021/12/18 07:04:33;;;;;;;10.65;2.72;;;;;;;;;;4899429;29;20056;-66
2021/12/18 07:07:04;;;;;;;9.15;3.08;;;;;;;;;;4915014;29;20059;-66
2021/12/18 07:09:34;;;;;;;8.55;2.72;;;;;;;;;;4911356;29;20067;-66
2021/12/18 07:12:05;;;;;;;10.05;3.50;;;;;;;;;;4896146;29;20060;-66
2021/12/18 07:14:35;;;;;;;8.50;2.95;;;;;;;;;;4895968;29;20101;-70
2021/12/18 07:17:06;;;;;;;7.93;3.35;;;;;;;;;;4924700;29;20534;-68
2021/12/18 07:19:37;;;;;;;13.38;3.88;;;;;;;;;;4934125;29;20133;-69
2021/12/18 07:22:07;;;;;;;8.52;3.13;;;;;;;;;;4935149;29;20071;-67
2021/12/18 07:24:37;;;;;;;11.38;4.80;;;;;;;;;;4952876;29;20047;-71
2021/12/18 07:27:08;;;;;;;9.02;3.22;;;;;;;;;;4953055;28;20055;-67
2021/12/18 07:29:38;;;;;;;8.63;3.55;;;;;;;;;;4953056;28;20493;-69
2021/12/18 07:32:09;;;;;;;9.00;3.88;;;;;;;;;;4972492;28;20058;-69
2021/12/18 07:34:54;;;;;;;8.15;3.70;;;;;;;;;;4971919;28;20158;-66
2021/12/18 07:37:25;;;;;;;7.00;3.35;;;;;;;;;;4971973;28;20058;-67
2021/12/18 07:39:55;;;;;;;8.02;3.65;;;;;;;;;;4952264;29;20055;-72
2021/12/18 07:42:26;;;;;;;8.27;4.00;;;;;;;;;;4952589;29;20608;-70
2021/12/18 07:44:57;;;;;;;8.82;3.63;;;;;;;;;;4932714;29;20055;-66
2021/12/18 07:47:27;;;;;;;9.40;3.85;;;;;;;;;;4956717;28;20068;-65
2021/12/18 07:49:58;;;;;;;9.30;3.97;;;;;;;;;;4971648;28;20066;-66
2021/12/18 07:52:28;;;;;;;9.90;4.30;;;;;;;;;;4971998;28;20055;-66
2021/12/18 07:54:58;;;;;;;10.90;4.00;;;;;;;;;;4979379;28;20050;-70
2021/12/18 07:57:29;;;;;;;9.43;4.60;;;;;;;;;;4955755;28;20478;-70
2021/12/18 07:59:59;;;;;;;13.13;4.45;;;;;;;;;;4971523;28;20535;-71
2021/12/18 08:02:34;;;;;;;9.57;3.75;;;;;;;;;;4956321;28;20078;-67
2021/12/18 08:05:05;;;;;;;10.68;4.22;;;;;;;;;;4955480;28;20153;-66
2021/12/18 08:07:36;;;;;;;12.05;4.03;;;;;;;;;;4971296;28;20065;-66
2021/12/18 08:10:07;;;;;;;17.40;4.47;;;;;;;;;;4971301;28;20113;-69
2021/12/18 08:12:38;;;;;;;14.57;4.38;;;;;;;;;;4913868;29;20492;-68
2021/12/18 08:15:09;;;;;;;12.75;4.75;;;;;;;;;;4913734;29;20444;-67
2021/12/18 08:17:39;;;;;;;15.48;4.50;;;;;;;;;;4913767;29;20559;-67
2021/12/18 08:20:10;;;;;;;11.90;4.38;;;;;;;;;;4913707;29;20060;-68
2021/12/18 08:22:41;;;;;;;14.10;4.13;;;;;;;;;;4934558;28;20062;-67
2021/12/18 08:25:11;;;;;;;15.00;4.90;;;;;;;;;;4951561;28;20118;-66
2021/12/18 08:27:41;;;;;;;13.60;4.22;;;;;;;;;;4951787;28;20051;-66
2021/12/18 08:30:12;;;;;;;11.32;4.10;;;;;;;;;;4990234;28;20054;-67
2021/12/18 08:32:44;;;;;;;11.70;4.45;;;;;;;;;;4952039;28;20054;-70
2021/12/18 08:35:14;;;;;;;12.27;5.13;;;;;;;;;;5009749;28;20062;-67
2021/12/18 08:37:44;;;;;;;14.00;5.35;;;;;;;;;;5011196;28;20441;-66
2021/12/18 08:40:15;;;;;;;10.27;5.28;;;;;;;;;;5029613;28;20203;-65
2021/12/18 08:42:46;;;;;;;8.80;4.10;;;;;;;;;;5029671;28;20052;-68
2021/12/18 08:45:17;;;;;;;9.30;4.25;;;;;;;;;;4964776;28;20049;-67
2021/12/18 08:47:48;;;;;;;12.48;4.75;;;;;;;;;;5028931;28;20433;-67
2021/12/18 08:50:20;;;;;;;14.27;5.18;;;;;;;;;;5029176;28;20413;-68
2021/12/18 08:52:52;;;;;;;18.85;5.00;;;;;;;;;;4992812;28;20093;-67
2021/12/18 08:55:23;;;;;;;10.32;4.55;;;;;;;;;;5005664;28;20062;-75
2021/12/18 08:57:53;;;;;;;17.02;4.90;;;;;;;;;;4970291;28;20062;-68
2021/12/18 09:00:25;;;;;;;19.70;4.68;;;;;;;;;;4972308;28;20074;-66
2021/12/18 09:02:57;;;;;;;11.07;4.70;;;;;;;;;;4989805;28;20068;-66
2021/12/18 09:05:29;;;;;;;16.58;4.70;;;;;;;;;;4966579;28;20047;-66
2021/12/18 09:07:59;;;;;;;14.80;5.10;;;;;;;;;;4951210;29;20419;-66
2021/12/18 09:10:30;;;;;;;16.80;5.43;;;;;;;;;;4961656;28;20062;-66
2021/12/18 09:13:00;;;;;;;10.27;4.57;;;;;;;;;;4970147;28;20090;-69
2021/12/18 09:15:31;;;;;;;13.43;4.53;;;;;;;;;;4963420;28;20073;-67
2021/12/18 09:18:01;;;;;;;10.10;4.13;;;;;;;;;;4958688;28;20063;-68
2021/12/18 09:20:31;;;;;;;11.23;4.05;;;;;;;;;;4961103;28;20043;-68
2021/12/18 09:23:02;;;;;;;12.40;3.70;;;;;;;;;;4942966;28;20098;-68
2021/12/18 09:25:33;;;;;;;18.45;4.30;;;;;;;;;;4966612;28;20058;-65
2021/12/18 09:28:03;;;;;;;11.60;4.00;;;;;;;;;;4953396;28;20051;-67
2021/12/18 09:30:34;;;;;;;10.50;3.72;;;;;;;;;;4898981;29;20057;-65
2021/12/18 09:33:05;;;;;;;8.43;4.03;;;;;;;;;;4930769;29;20055;-66
2021/12/18 09:35:35;;;;;;;11.15;4.55;;;;;;;;;;4919466;29;20051;-66
2021/12/18 09:38:06;;;;;;;13.45;4.53;;;;;;;;;;4927391;29;20056;-65
2021/12/18 09:40:37;;;;;;;10.80;3.90;;;;;;;;;;4916956;29;20048;-66
2021/12/18 09:43:08;;;;;;;16.05;4.53;;;;;;;;;;4930821;29;20060;-66
2021/12/18 09:45:38;;;;;;;9.60;3.70;;;;;;;;;;4935392;29;20056;-68
2021/12/18 09:48:09;;;;;;;7.97;4.20;;;;;;;;;;4927267;29;20051;-65
2021/12/18 09:50:42;;;;;;;11.60;5.18;;;;;;;;;;4935174;28;20051;-65
2021/12/18 09:53:13;;;;;;;7.85;3.78;;;;;;;;;;4969669;28;20051;-65
2021/12/18 09:55:44;;;;;;;10.00;4.53;;;;;;;;;;4953912;28;20059;-66
2021/12/18 09:58:15;;;;;;;7.57;3.88;;;;;;;;;;4969764;28;20065;-66
2021/12/18 10:00:45;;;;;;;7.57;3.53;;;;;;;;;;4959494;28;20055;-65
2021/12/18 10:03:16;;;;;;;5.82;3.47;;;;;;;;;;4970772;28;20066;-66
2021/12/18 10:05:46;;;;;;;6.93;3.83;;;;;;;;;;4999629;28;20054;-68
2021/12/18 10:08:19;;;;;;;9.10;3.22;;;;;;;;;;5008826;28;20531;-68
2021/12/18 10:11:01;;;;;;;4.45;2.83;;;;;;;;;;5009009;28;20489;-63
2021/12/18 10:13:59;;;;;;;5.22;3.17;;;;;;;;;;5011462;28;20050;-65
2021/12/18 10:16:31;;;;;;;5.13;2.95;;;;;;;;;;4973337;28;20557;-65
2021/12/18 10:19:02;;;;;;;6.88;3.13;;;;;;;;;;4957678;28;20062;-64
2021/12/18 10:21:32;;;;;;;6.47;3.33;;;;;;;;;;4973361;28;20067;-65
2021/12/18 10:24:17;;;;;;;4.93;2.83;;;;;;;;;;4973487;28;20051;-65
2021/12/18 10:26:48;;;;;;;9.18;3.10;;;;;;;;;;5026821;28;20050;-64
2021/12/18 10:29:35;;;;;;;6.82;3.22;;;;;;;;;;5032095;28;20054;-65
2021/12/18 10:32:09;;;;;;;5.15;2.97;;;;;;;;;;4992532;28;20506;-65
2021/12/18 10:34:49;;;;;;;5.63;2.72;;;;;;;;;;4934536;29;20062;-66
2021/12/18 10:37:28;;;;;;;7.63;2.97;;;;;;;;;;4934272;29;20060;-64
2021/12/18 10:40:08;;;;;;;7.30;2.90;;;;;;;;;;4934454;29;20060;-66
2021/12/18 10:42:46;;;;;;;5.28;2.90;;;;;;;;;;4887543;29;20516;-65
2021/12/18 10:45:25;;;;;;;7.65;2.80;;;;;;;;;;4934115;29;20067;-64
2021/12/18 10:48:06;;;;;;;5.45;2.67;;;;;;;;;;4934492;29;20090;-63
2021/12/18 10:50:43;;;;;;;5.68;2.65;;;;;;;;;;4896406;29;20049;-64
2021/12/18 10:53:20;;;;;;;4.82;2.45;;;;;;;;;;4880544;29;20052;-63
2021/12/18 10:56:02;;;;;;;10.73;2.85;;;;;;;;;;4896322;29;20056;-64
2021/12/18 10:58:36;;;;;;;4.88;2.50;;;;;;;;;;4880931;29;20065;-62
2021/12/18 11:01:12;;;;;;;4.25;2.47;;;;;;;;;;4895890;29;20060;-68
2021/12/18 11:03:48;;;;;;;5.63;2.15;;;;;;;;;;4896289;29;20064;-64
2021/12/18 11:06:25;;;;;;;7.22;2.22;;;;;;;;;;4896398;29;20092;-65
2021/12/18 11:09:10;;;;;;;5.05;2.10;;;;;;;;;;4906891;28;20055;-66
2021/12/18 11:14:38;;;;;;;4.93;2.33;;;;;;;;;;5011633;28;20057;-62
2021/12/18 11:17:11;;;;;;;3.53;2.10;;;;;;;;;;5022724;28;20053;-65
2021/12/18 11:19:43;;;;;;;7.55;2.20;;;;;;;;;;4988715;28;20057;-65
2021/12/18 11:22:16;;;;;;;3.85;2.20;;;;;;;;;;4975178;28;20046;-64
2021/12/18 11:24:57;;;;;;;3.05;1.95;;;;;;;;;;4989071;28;20437;-64
2021/12/18 11:27:32;;;;;;;4.10;2.40;;;;;;;;;;4966546;28;20046;-65
2021/12/18 11:30:11;;;;;;;6.57;3.40;;;;;;;;;;5010153;28;20425;-64
2021/12/18 11:32:53;;;;;;;3.78;1.98;;;;;;;;;;5008359;28;20053;-64
2021/12/18 11:35:24;;;;;;;4.40;2.28;;;;;;;;;;4953962;28;20435;-65
2021/12/18 11:37:59;;;;;;;3.90;1.63;;;;;;;;;;4962365;28;20049;-65
2021/12/18 11:40:37;;;;;;;3.58;2.10;;;;;;;;;;4994241;28;20053;-65
2021/12/18 11:43:35;;;;;;;3.28;2.00;;;;;;;;;;4937293;28;20062;-64
2021/12/18 11:46:39;;;;;;;3.53;1.85;;;;;;;;;;4906931;29;20056;-64
2021/12/18 11:49:11;;;;;;;3.05;1.63;;;;;;;;;;4880833;29;20055;-67
2021/12/18 11:51:58;;;;;;;5.43;1.90;;;;;;;;;;4896250;29;20057;-63
2021/12/18 11:54:54;;;;;;;4.95;1.70;;;;;;;;;;4879911;29;20061;-69
2021/12/18 11:57:50;;;;;;;3.50;1.80;;;;;;;;;;4905022;29;20497;-65
2021/12/18 12:00:23;;;;;;;4.00;1.88;;;;;;;;;;4933255;29;20063;-66
2021/12/18 12:02:57;;;;;;;5.25;1.95;;;;;;;;;;4932931;29;20056;-65
2021/12/18 12:05:47;;;;;;;2.97;1.67;;;;;;;;;;4932665;29;20059;-65
2021/12/18 12:08:39;;;;;;;5.40;1.80;;;;;;;;;;4910126;29;20073;-70
2021/12/18 12:11:26;;;;;;;4.43;1.63;;;;;;;;;;4931955;29;20055;-66
2021/12/18 12:14:04;;;;;;;3.42;1.98;;;;;;;;;;4932367;29;20074;-65
2021/12/18 12:16:45;;;;;;;7.75;1.50;;;;;;;;;;4905481;29;20174;-67
2021/12/18 12:19:39;;;;;;;2.30;1.30;;;;;;;;;;4904274;29;20059;-70
2021/12/18 12:22:30;;;;;;;3.25;1.45;;;;;;;;;;4924943;29;20052;-70
2021/12/18 12:25:02;;;;;;;3.50;1.70;;;;;;;;;;4985171;28;20062;-67
2021/12/18 12:27:38;;;;;;;3.35;1.67;;;;;;;;;;5043196;28;20052;-66
2021/12/18 12:30:25;;;;;;;2.53;1.50;;;;;;;;;;5059522;28;20056;-66
2021/12/18 12:33:01;;;;;;;3.88;1.90;;;;;;;;;;5062584;28;20060;-67
2021/12/18 12:36:01;;;;;;;3.10;1.63;;;;;;;;;;5000420;28;20615;-68
2021/12/18 12:39:02;;;;;;;2.38;1.73;;;;;;;;;;5062720;28;20127;-65
2021/12/18 12:41:51;;;;;;;2.65;1.50;;;;;;;;;;5066869;28;20051;-67
2021/12/18 12:44:26;;;;;;;3.08;2.17;;;;;;;;;;5051698;28;20056;-64
2021/12/18 12:47:19;;;;;;;5.30;1.55;;;;;;;;;;4993190;28;20046;-65
2021/12/18 12:49:55;;;;;;;3.15;2.20;;;;;;;;;;4989627;28;20422;-65
2021/12/18 12:52:28;;;;;;;4.10;1.77;;;;;;;;;;4990302;28;20058;-67
2021/12/18 12:55:06;;;;;;;4.15;1.77;;;;;;;;;;4973468;28;20061;-66
2021/12/18 12:57:43;;;;;;;3.67;2.22;;;;;;;;;;4993242;28;20052;-65
2021/12/18 13:00:16;;;;;;;3.95;1.80;;;;;;;;;;4976723;28;20059;-64
2021/12/18 13:02:57;;;;;;;5.15;1.60;;;;;;;;;;5009639;28;20058;-64
2021/12/18 13:05:29;;;;;;;5.35;1.90;;;;;;;;;;5009684;28;20057;-63
2021/12/18 13:08:02;;;;;;;6.00;1.75;;;;;;;;;;4989596;28;20204;-63
2021/12/18 13:10:38;;;;;;;4.93;1.70;;;;;;;;;;4950876;29;20504;-66
2021/12/18 13:13:15;;;;;;;3.53;1.65;;;;;;;;;;4950796;29;20062;-63
2021/12/18 13:15:54;;;;;;;3.45;1.63;;;;;;;;;;4931425;29;20051;-64
2021/12/18 13:18:31;;;;;;;2.97;1.80;;;;;;;;;;4884796;29;20055;-65
2021/12/18 13:21:21;;;;;;;5.38;1.88;;;;;;;;;;4931979;29;20063;-64
2021/12/18 13:23:51;;;;;;;;;;;;;;;;;;4939705;28;20058;-63
2021/12/18 13:26:27;;;;;;;12.45;1.75;;;;;;;;;;4964255;28;19922;-63
2021/12/18 13:29:19;;;;;;;3.22;1.67;;;;;;;;;;4958568;28;20510;-68
2021/12/18 13:31:54;;;;;;;3.00;1.70;;;;;;;;;;4960526;28;20555;-64
2021/12/18 13:34:37;;;;;;;5.55;1.67;;;;;;;;;;4961846;28;20058;-68
2021/12/18 13:37:12;;;;;;;3.10;1.80;;;;;;;;;;5001161;28;20438;-64
2021/12/18 13:39:49;;;;;;;3.95;1.92;;;;;;;;;;4995177;28;20430;-62
2021/12/18 13:42:22;;;;;;;4.60;1.63;;;;;;;;;;4976293;28;20046;-63
2021/12/18 13:45:04;;;;;;;3.03;1.98;;;;;;;;;;4966706;28;20406;-63
2021/12/18 13:47:40;;;;;;;4.03;1.60;;;;;;;;;;5001409;28;20049;-64
2021/12/18 13:50:17;;;;;;;4.20;1.65;;;;;;;;;;5034591;28;20062;-67
2021/12/18 13:52:54;;;;;;;4.88;1.50;;;;;;;;;;5020200;28;20053;-63
2021/12/18 13:55:51;;;;;;;3.75;1.50;;;;;;;;;;4975422;28;20541;-64
2021/12/18 13:58:27;;;;;;;5.38;1.48;;;;;;;;;;4975981;28;20059;-62
2021/12/18 14:01:07;;;;;;;2.38;1.65;;;;;;;;;;4975024;28;20059;-63
2021/12/18 14:03:58;;;;;;;7.82;3.08;;;;;;;;;;4976384;28;20103;-67
2021/12/18 14:06:41;;;;;;;5.28;2.17;;;;;;;;;;4956781;28;20058;-62
2021/12/18 14:09:23;;;;;;;2.97;1.52;;;;;;;;;;4956963;28;20055;-62
2021/12/18 14:12:07;;;;;;;2.72;1.58;;;;;;;;;;4956937;28;20529;-64
2021/12/18 14:14:46;;;;;;;7.03;1.70;;;;;;;;;;4956667;28;20047;-63
2021/12/18 14:17:31;;;;;;;5.18;1.70;;;;;;;;;;4925814;28;20055;-64
2021/12/18 14:20:11;;;;;;;5.18;2.60;;;;;;;;;;4957004;28;20643;-63
2021/12/18 14:22:43;;;;;;;2.83;1.60;;;;;;;;;;4948815;28;20059;-70
2021/12/18 14:25:17;;;;;;;3.88;1.80;;;;;;;;;;4956784;28;20082;-63
2021/12/18 14:27:50;;;;;;;1.92;1.55;;;;;;;;;;4940788;29;20073;-63
2021/12/18 14:30:28;;;;;;;3.60;1.70;;;;;;;;;;4940501;28;20055;-63
2021/12/18 14:33:11;;;;;;;3.53;1.45;;;;;;;;;;4976131;28;20077;-62
2021/12/18 14:35:52;;;;;;;2.65;1.63;;;;;;;;;;5013842;28;20433;-64
2021/12/18 14:38:23;;;;;;;4.18;2.42;;;;;;;;;;4999025;28;20413;-63
2021/12/18 14:41:00;;;;;;;3.50;1.70;;;;;;;;;;5014993;28;20064;-62
2021/12/18 14:43:31;;;;;;;5.15;1.67;;;;;;;;;;4971067;28;20064;-66
2021/12/18 14:46:01;;;;;;;2.65;1.75;;;;;;;;;;5034793;28;20068;-62
2021/12/18 14:48:34;;;;;;;5.88;2.30;;;;;;;;;;5001818;28;20050;-62
2021/12/18 14:51:05;;;;;;;3.78;1.73;;;;;;;;;;4994872;28;20495;-62
2021/12/18 14:53:36;;;;;;;6.75;1.95;;;;;;;;;;4994981;28;20054;-62
2021/12/18 14:56:14;;;;;;;3.95;2.47;;;;;;;;;;4995201;28;20458;-63
2021/12/18 14:58:44;;;;;;;3.92;2.05;;;;;;;;;;4993434;28;20062;-63
2021/12/18 15:01:18;;;;;;;4.05;1.60;;;;;;;;;;5009128;28;20065;-62
2021/12/18 15:03:56;;;;;;;3.55;1.73;;;;;;;;;;4978626;28;20054;-64
2021/12/18 15:06:31;;;;;;;3.17;1.70;;;;;;;;;;4971775;28;20062;-68
2021/12/18 15:09:08;;;;;;;4.03;1.60;;;;;;;;;;4972046;28;20131;-65
2021/12/18 15:11:43;;;;;;;7.05;1.80;;;;;;;;;;4970804;28;20059;-64
2021/12/18 15:14:18;;;;;;;5.55;1.65;;;;;;;;;;4972769;28;20070;-62
2021/12/18 15:16:55;;;;;;;3.28;2.05;;;;;;;;;;4972629;28;20054;-66
2021/12/18 15:19:36;;;;;;;2.97;1.80;;;;;;;;;;4941495;29;20062;-64
2021/12/18 15:22:16;;;;;;;5.68;1.55;;;;;;;;;;4936679;29;20058;-65
2021/12/18 15:24:47;;;;;;;4.97;1.60;;;;;;;;;;4933214;29;20064;-64
2021/12/18 15:27:17;;;;;;;5.55;1.65;;;;;;;;;;4924802;29;20064;-65
2021/12/18 15:29:48;;;;;;;5.75;1.80;;;;;;;;;;4936929;28;20058;-63
2021/12/18 15:32:21;;;;;;;2.65;1.65;;;;;;;;;;5007528;28;20538;-64
2021/12/18 15:34:51;;;;;;;3.70;1.73;;;;;;;;;;5011025;28;20493;-67
2021/12/18 15:37:21;;;;;;;5.57;1.70;;;;;;;;;;4971915;28;20077;-63
2021/12/18 15:39:52;;;;;;;4.60;1.52;;;;;;;;;;4939853;28;20180;-63
2021/12/18 15:42:28;;;;;;;3.28;1.67;;;;;;;;;;4971977;28;20590;-68
2021/12/18 15:45:01;;;;;;;4.70;1.55;;;;;;;;;;4972106;28;20097;-68
2021/12/18 15:47:31;;;;;;;4.22;1.77;;;;;;;;;;4939871;28;20549;-65
2021/12/18 15:50:01;;;;;;;3.88;1.50;;;;;;;;;;4956141;28;20070;-63
2021/12/18 15:52:32;;;;;;;3.40;1.55;;;;;;;;;;4971819;28;20054;-63
2021/12/18 15:55:02;;;;;;;8.20;1.60;;;;;;;;;;4971798;28;20487;-71
2021/12/18 15:57:33;;;;;;;3.35;1.73;;;;;;;;;;4985645;28;20199;-64
2021/12/18 16:00:04;;;;;;;4.15;2.00;;;;;;;;;;5015675;28;20413;-63
2021/12/18 16:02:42;;;;;;;5.93;1.40;;;;;;;;;;4983726;28;20061;-66
2021/12/18 16:05:15;;;;;;;3.20;1.50;;;;;;;;;;5030599;28;20057;-64
2021/12/18 16:07:45;;;;;;;13.05;2.03;;;;;;;;;;4981685;28;20058;-67
2021/12/18 16:10:15;;;;;;;3.42;1.88;;;;;;;;;;5030265;28;20041;-68